createdAt,value
2018-02-03T00:01:21.894Z,1.90
2018-02-03T00:03:25.351Z,1.90
2018-02-03T00:05:28.679Z,1.90
2018-02-03T00:07:32.085Z,1.80
2018-02-03T00:09:36.211Z,1.70
2018-02-03T00:11:39.605Z,1.70
2018-02-03T00:13:42.949Z,1.70
2018-02-03T00:15:47.084Z,1.80
2018-02-03T00:17:50.849Z,1.70
2018-02-03T00:19:54.997Z,1.80
2018-02-03T00:21:58.390Z,1.70
2018-02-03T00:24:01.755Z,1.70
2018-02-03T00:26:05.917Z,1.80
2018-02-03T00:28:09.276Z,1.70
2018-02-03T00:30:12.673Z,1.80
2018-02-03T00:32:16.835Z,1.80
2018-02-03T00:34:20.189Z,1.80
2018-02-03T00:36:23.528Z,1.80
2018-02-03T00:38:26.901Z,1.80
2018-02-03T00:40:30.331Z,1.80
2018-02-03T00:42:33.677Z,1.80
2018-02-03T00:44:37.030Z,1.80
2018-02-03T00:46:40.367Z,1.90
2018-02-03T00:48:43.725Z,1.90
2018-02-03T00:50:47.151Z,1.90
2018-02-03T00:52:50.521Z,1.90
2018-02-03T00:54:53.907Z,1.90
2018-02-03T00:56:57.365Z,1.90
2018-02-03T00:59:00.722Z,2.00
2018-02-03T01:01:04.089Z,2.00
2018-02-03T01:03:07.429Z,1.90
2018-02-03T01:05:11.583Z,2.10
2018-02-03T01:07:14.991Z,2.10
2018-02-03T01:09:18.344Z,2.10
2018-02-03T01:11:21.704Z,2.10
2018-02-03T01:13:25.813Z,2.10
2018-02-03T01:15:29.965Z,2.10
2018-02-03T01:17:33.362Z,2.10
2018-02-03T01:19:36.712Z,2.10
2018-02-03T01:21:40.066Z,2.10
2018-02-03T01:23:43.580Z,2.00
2018-02-03T01:25:46.920Z,2.00
2018-02-03T01:27:50.258Z,2.00
2018-02-03T01:29:54.397Z,2.10
2018-02-03T01:31:58.502Z,2.10
2018-02-03T01:34:02.644Z,2.10
2018-02-03T01:36:05.999Z,2.10
2018-02-03T01:38:10.110Z,2.00
2018-02-03T01:40:13.483Z,2.00
2018-02-03T01:42:16.847Z,2.00
2018-02-03T01:44:20.196Z,2.10
2018-02-03T01:46:23.556Z,2.10
2018-02-03T01:48:26.899Z,2.10
2018-02-03T01:50:30.267Z,2.10
2018-02-03T01:52:34.397Z,2.20
2018-02-03T01:54:37.771Z,2.20
2018-02-03T01:56:41.135Z,2.10
2018-02-03T01:58:44.510Z,2.20
2018-02-03T02:00:47.849Z,2.20
2018-02-03T02:02:51.208Z,2.20
2018-02-03T02:04:54.593Z,2.20
2018-02-03T02:06:57.931Z,2.10
2018-02-03T02:09:01.297Z,2.10
2018-02-03T02:11:05.445Z,2.10
2018-02-03T02:13:08.824Z,2.10
2018-02-03T02:15:12.933Z,2.10
2018-02-03T02:17:16.293Z,2.10
2018-02-03T02:19:19.648Z,2.10
2018-02-03T02:21:22.976Z,2.10
2018-02-03T02:23:26.328Z,2.10
2018-02-03T02:25:29.717Z,2.10
2018-02-03T02:27:33.066Z,2.20
2018-02-03T02:29:36.404Z,2.10
2018-02-03T02:31:39.776Z,2.10
2018-02-03T02:33:43.136Z,2.10
2018-02-03T02:35:46.465Z,2.00
2018-02-03T02:37:49.855Z,2.00
2018-02-03T02:39:53.246Z,2.00
2018-02-03T02:41:57.794Z,2.00
2018-02-03T02:44:01.168Z,2.00
2018-02-03T02:46:04.566Z,2.00
2018-02-03T02:48:07.918Z,2.00
2018-02-03T02:50:11.257Z,2.00
2018-02-03T02:52:14.662Z,2.00
2018-02-03T02:54:18.019Z,2.00
2018-02-03T02:56:21.348Z,2.00
2018-02-03T02:58:24.702Z,2.00
2018-02-03T03:00:28.067Z,2.00
2018-02-03T03:02:32.181Z,2.00
2018-02-03T03:04:36.319Z,2.00
2018-02-03T03:06:40.430Z,2.00
2018-02-03T03:08:43.828Z,2.00
2018-02-03T03:10:47.218Z,2.00
2018-02-03T03:12:50.552Z,2.00
2018-02-03T03:14:53.926Z,2.00
2018-02-03T03:16:57.296Z,2.00
2018-02-03T03:19:00.666Z,2.00
2018-02-03T03:21:04.028Z,2.00
2018-02-03T03:23:08.153Z,2.00
2018-02-03T03:25:12.249Z,2.00
2018-02-03T03:27:16.416Z,2.00
2018-02-03T03:29:19.778Z,2.00
2018-02-03T03:31:23.120Z,2.00
2018-02-03T03:33:26.451Z,2.00
2018-02-03T03:35:29.809Z,2.10
2018-02-03T03:37:33.141Z,2.10
2018-02-03T03:39:36.515Z,2.00
2018-02-03T03:41:39.892Z,2.00
2018-02-03T03:43:43.250Z,2.00
2018-02-03T03:45:46.641Z,2.00
2018-02-03T03:47:50.020Z,2.00
2018-02-03T03:49:53.357Z,1.90
2018-02-03T03:51:56.696Z,1.90
2018-02-03T03:54:00.036Z,1.80
2018-02-03T03:56:03.433Z,1.80
2018-02-03T03:58:06.762Z,1.80
2018-02-03T04:00:10.109Z,1.90
2018-02-03T04:02:13.497Z,1.90
2018-02-03T04:04:17.621Z,1.90
2018-02-03T04:06:21.002Z,1.90
2018-02-03T04:08:24.383Z,1.90
2018-02-03T04:10:27.753Z,1.90
2018-02-03T04:12:31.074Z,1.90
2018-02-03T04:14:34.438Z,1.90
2018-02-03T04:16:37.771Z,1.90
2018-02-03T04:18:41.114Z,1.90
2018-02-03T04:20:44.440Z,2.00
2018-02-03T04:22:47.802Z,1.90
2018-02-03T04:24:51.202Z,1.90
2018-02-03T04:26:54.536Z,1.90
2018-02-03T04:28:57.906Z,1.90
2018-02-03T04:31:01.299Z,1.90
2018-02-03T04:33:04.690Z,2.00
2018-02-03T04:35:08.851Z,2.00
2018-02-03T04:37:12.227Z,2.00
2018-02-03T04:39:15.616Z,2.00
2018-02-03T04:41:18.985Z,2.00
2018-02-03T04:43:22.353Z,2.00
2018-02-03T04:45:25.703Z,2.00
2018-02-03T04:47:29.064Z,2.00
2018-02-03T04:49:33.202Z,2.10
2018-02-03T04:51:36.593Z,2.10
2018-02-03T04:53:39.941Z,2.00
2018-02-03T04:55:43.326Z,2.00
2018-02-03T04:57:46.686Z,2.00
2018-02-03T04:59:50.878Z,2.10
2018-02-03T05:01:54.253Z,2.00
2018-02-03T05:03:58.403Z,2.00
2018-02-03T05:06:01.785Z,2.00
2018-02-03T05:08:05.113Z,2.00
2018-02-03T05:10:08.470Z,2.00
2018-02-03T05:12:11.801Z,2.00
2018-02-03T05:14:15.158Z,2.00
2018-02-03T05:16:18.534Z,2.00
2018-02-03T05:18:21.891Z,2.00
2018-02-03T05:20:26.017Z,2.00
2018-02-03T05:22:29.375Z,2.00
2018-02-03T05:24:32.709Z,1.90
2018-02-03T05:26:36.841Z,1.90
2018-02-03T05:28:40.214Z,1.90
2018-02-03T05:30:43.600Z,1.90
2018-02-03T05:32:46.994Z,1.90
2018-02-03T05:34:51.104Z,1.90
2018-02-03T05:36:55.217Z,1.90
2018-02-03T05:38:58.617Z,1.90
2018-02-03T05:41:02.745Z,2.00
2018-02-03T05:43:06.130Z,2.00
2018-02-03T05:45:10.304Z,2.00
2018-02-03T05:47:14.446Z,2.20
2018-02-03T05:49:17.825Z,2.20
2018-02-03T05:51:21.170Z,2.20
2018-02-03T05:53:25.330Z,2.10
2018-02-03T05:55:28.658Z,2.10
2018-02-03T05:57:32.010Z,2.10
2018-02-03T05:59:35.424Z,2.10
2018-02-03T06:01:38.797Z,2.10
2018-02-03T06:03:42.192Z,2.00
2018-02-03T06:05:45.599Z,2.10
2018-02-03T06:07:49.326Z,2.00
2018-02-03T06:09:52.876Z,2.10
2018-02-03T06:11:56.237Z,2.10
2018-02-03T06:13:59.626Z,2.10
2018-02-03T06:16:03.951Z,2.10
2018-02-03T06:18:07.356Z,2.10
2018-02-03T06:20:11.512Z,2.10
2018-02-03T06:22:14.882Z,2.10
2018-02-03T06:24:18.274Z,2.00
2018-02-03T06:26:21.631Z,2.10
2018-02-03T06:28:24.999Z,2.10
2018-02-03T06:30:28.351Z,2.00
2018-02-03T06:32:31.686Z,2.00
2018-02-03T06:34:35.300Z,2.00
2018-02-03T06:36:39.487Z,2.10
2018-02-03T06:38:42.971Z,2.00
2018-02-03T06:40:46.348Z,2.00
2018-02-03T06:42:49.714Z,2.00
2018-02-03T06:44:53.060Z,2.00
2018-02-03T06:46:56.425Z,2.00
2018-02-03T06:48:59.774Z,1.90
2018-02-03T06:51:03.876Z,1.90
2018-02-03T06:53:07.984Z,1.90
2018-02-03T06:55:11.331Z,1.90
2018-02-03T06:57:14.756Z,1.90
2018-02-03T06:59:18.114Z,1.90
2018-02-03T07:01:21.475Z,1.90
2018-02-03T07:03:24.817Z,1.90
2018-02-03T07:05:28.198Z,2.00
2018-02-03T07:07:31.563Z,2.00
2018-02-03T07:09:34.949Z,2.10
2018-02-03T07:11:38.294Z,2.10
2018-02-03T07:13:41.635Z,2.10
2018-02-03T07:15:44.967Z,2.00
2018-02-03T07:17:48.345Z,2.00
2018-02-03T07:19:51.715Z,2.00
2018-02-03T07:21:55.104Z,2.00
2018-02-03T07:23:58.456Z,2.00
2018-02-03T07:26:02.565Z,2.00
2018-02-03T07:28:06.669Z,2.00
2018-02-03T07:30:10.792Z,2.00
2018-02-03T07:32:14.901Z,2.10
2018-02-03T07:34:19.027Z,2.10
2018-02-03T07:36:22.374Z,2.10
2018-02-03T07:38:25.767Z,2.10
2018-02-03T07:40:29.161Z,2.10
2018-02-03T07:42:32.553Z,2.10
2018-02-03T07:44:35.909Z,2.10
2018-02-03T07:46:39.257Z,2.10
2018-02-03T07:48:42.596Z,2.10
2018-02-03T07:50:45.964Z,2.10
2018-02-03T07:52:49.389Z,2.10
2018-02-03T07:54:52.746Z,2.10
2018-02-03T07:56:56.101Z,2.20
2018-02-03T07:59:00.237Z,2.20
2018-02-03T08:01:04.420Z,2.20
2018-02-03T08:03:08.718Z,2.30
2018-02-03T08:05:13.899Z,2.30
2018-02-03T08:07:18.169Z,2.20
2018-02-03T08:09:21.783Z,2.20
2018-02-03T08:11:25.151Z,2.20
2018-02-03T08:13:28.480Z,2.20
2018-02-03T08:15:32.597Z,2.20
2018-02-03T08:17:36.690Z,2.10
2018-02-03T08:19:40.955Z,2.20
2018-02-03T08:21:44.330Z,2.20
2018-02-03T08:23:47.707Z,2.20
2018-02-03T08:25:51.062Z,2.20
2018-02-03T08:27:55.191Z,2.20
2018-02-03T08:29:58.593Z,2.20
2018-02-03T08:32:02.699Z,2.20
2018-02-03T08:34:06.293Z,2.20
2018-02-03T08:36:09.683Z,2.20
2018-02-03T08:38:13.090Z,2.20
2018-02-03T08:40:33.965Z,2.30
2018-02-03T08:42:39.730Z,2.30
2018-02-03T08:44:44.760Z,2.30
2018-02-03T08:46:54.000Z,2.30
2018-02-03T08:48:58.894Z,2.30
2018-02-03T08:51:04.291Z,2.30
2018-02-03T08:53:07.714Z,2.40
2018-02-03T08:55:11.052Z,2.40
2018-02-03T08:57:15.165Z,2.30
2018-02-03T08:59:19.309Z,2.40
2018-02-03T09:01:22.702Z,2.30
2018-02-03T09:03:26.233Z,2.30
2018-02-03T09:05:29.782Z,2.40
2018-02-03T09:07:33.117Z,2.30
2018-02-03T09:09:37.229Z,2.40
2018-02-03T09:11:48.539Z,2.40
2018-02-03T09:13:51.932Z,2.40
2018-02-03T09:15:55.303Z,2.40
2018-02-03T09:17:58.675Z,2.50
2018-02-03T09:20:02.857Z,2.50
2018-02-03T09:22:06.246Z,2.50
2018-02-03T09:24:09.587Z,2.50
2018-02-03T09:26:12.925Z,2.60
2018-02-03T09:28:16.278Z,2.50
2018-02-03T09:30:19.614Z,2.60
2018-02-03T09:32:23.036Z,2.50
2018-02-03T09:34:26.462Z,2.50
2018-02-03T09:36:29.870Z,2.50
2018-02-03T09:38:33.265Z,2.60
2018-02-03T09:40:36.636Z,2.60
2018-02-03T09:42:40.866Z,2.60
2018-02-03T09:44:44.399Z,2.60
2018-02-03T09:46:48.069Z,2.70
2018-02-03T09:48:52.042Z,2.80
2018-02-03T09:50:56.282Z,2.80
2018-02-03T09:52:59.707Z,2.80
2018-02-03T09:55:03.146Z,2.80
2018-02-03T09:57:06.536Z,2.80
2018-02-03T09:59:09.863Z,2.80
2018-02-03T10:01:13.240Z,2.80
2018-02-03T10:03:16.669Z,2.80
2018-02-03T10:05:20.011Z,2.80
2018-02-03T10:07:24.153Z,2.80
2018-02-03T10:09:27.524Z,2.80
2018-02-03T10:11:30.937Z,2.90
2018-02-03T10:13:35.075Z,2.90
2018-02-03T10:15:38.454Z,2.90
2018-02-03T10:17:43.245Z,2.90
2018-02-03T10:19:46.638Z,2.90
2018-02-03T10:21:49.986Z,2.90
2018-02-03T10:23:54.224Z,3.00
2018-02-03T10:25:57.557Z,3.00
2018-02-03T10:28:00.922Z,3.00
2018-02-03T10:30:04.306Z,3.10
2018-02-03T10:32:07.809Z,3.10
2018-02-03T10:34:11.173Z,3.10
2018-02-03T10:36:15.277Z,3.20
2018-02-03T10:38:19.164Z,3.20
2018-02-03T10:40:22.614Z,3.10
2018-02-03T10:42:26.015Z,3.20
2018-02-03T10:44:29.400Z,3.20
2018-02-03T10:46:33.518Z,3.30
2018-02-03T10:48:36.869Z,3.30
2018-02-03T10:50:40.225Z,3.30
2018-02-03T10:52:43.564Z,3.40
2018-02-03T10:54:46.959Z,3.30
2018-02-03T10:56:54.974Z,3.30
2018-02-03T10:58:59.171Z,3.30
2018-02-03T11:01:10.870Z,3.30
2018-02-03T11:03:15.073Z,3.30
2018-02-03T11:05:19.219Z,3.20
2018-02-03T11:07:22.600Z,3.20
2018-02-03T11:09:25.931Z,3.20
2018-02-03T11:11:29.285Z,3.20
2018-02-03T11:13:32.649Z,3.20
2018-02-03T11:15:36.028Z,3.20
2018-02-03T11:17:40.184Z,3.20
2018-02-03T11:19:43.540Z,3.10
2018-02-03T11:21:46.904Z,3.20
2018-02-03T11:23:50.261Z,3.20
2018-02-03T11:25:53.738Z,3.20
2018-02-03T11:27:57.418Z,3.20
2018-02-03T11:30:00.886Z,3.30
2018-02-03T11:32:05.759Z,3.20
2018-02-03T11:34:09.135Z,3.20
2018-02-03T11:36:12.509Z,3.20
2018-02-03T11:38:16.430Z,3.20
2018-02-03T11:40:20.101Z,3.20
2018-02-03T11:42:23.544Z,3.40
2018-02-03T11:44:26.892Z,3.60
2018-02-03T11:46:31.048Z,4.10
2018-02-03T11:48:34.459Z,4.10
2018-02-03T11:50:37.821Z,4.30
2018-02-03T11:52:41.191Z,4.60
2018-02-03T11:54:45.808Z,5.40
2018-02-03T11:56:49.247Z,5.40
2018-02-03T11:58:52.582Z,5.80
2018-02-03T12:00:56.764Z,6.20
2018-02-03T12:03:00.112Z,6.20
2018-02-03T12:05:04.831Z,6.20
2018-02-03T12:07:08.307Z,6.20
2018-02-03T12:09:11.939Z,6.20
2018-02-03T12:11:16.444Z,6.10
2018-02-03T12:13:22.236Z,5.80
2018-02-03T12:15:26.488Z,5.80
2018-02-03T12:17:30.788Z,5.70
2018-02-03T12:19:34.288Z,5.50
2018-02-03T12:21:38.179Z,5.30
2018-02-03T12:23:43.326Z,5.40
2018-02-03T12:25:47.080Z,5.40
2018-02-03T12:27:50.610Z,5.60
2018-02-03T12:29:54.005Z,5.80
2018-02-03T12:31:57.370Z,5.80
2018-02-03T12:34:01.067Z,6.00
2018-02-03T12:36:04.967Z,5.80
2018-02-03T12:38:08.770Z,5.70
2018-02-03T12:40:12.223Z,5.60
2018-02-03T12:42:16.066Z,5.50
2018-02-03T12:44:19.427Z,5.50
2018-02-03T12:46:24.946Z,5.50
2018-02-03T12:48:29.915Z,5.40
2018-02-03T12:50:34.270Z,5.40
2018-02-03T12:52:38.073Z,5.40
2018-02-03T12:54:41.945Z,5.30
2018-02-03T12:56:45.309Z,5.30
2018-02-03T12:58:50.705Z,5.20
2018-02-03T13:00:54.401Z,5.20
2018-02-03T13:02:58.649Z,4.90
2018-02-03T13:05:02.110Z,4.80
2018-02-03T13:07:07.250Z,4.70
2018-02-03T13:09:11.515Z,4.70
2018-02-03T13:11:14.877Z,4.60
2018-02-03T13:13:19.696Z,4.70
2018-02-03T13:15:23.074Z,4.70
2018-02-03T13:17:26.770Z,4.60
2018-02-03T13:19:31.565Z,4.50
2018-02-03T13:21:34.910Z,4.50
2018-02-03T13:23:38.294Z,4.50
2018-02-03T13:25:43.212Z,4.40
2018-02-03T13:27:46.589Z,4.50
2018-02-03T13:29:50.591Z,4.60
2018-02-03T13:31:53.964Z,4.60
2018-02-03T13:33:57.326Z,4.60
2018-02-03T13:36:00.947Z,4.70
2018-02-03T13:38:04.289Z,4.70
2018-02-03T13:40:08.015Z,4.70
2018-02-03T13:42:11.413Z,4.70
2018-02-03T13:44:14.767Z,4.70
2018-02-03T13:46:19.177Z,4.70
2018-02-03T13:48:23.095Z,4.70
2018-02-03T13:50:27.649Z,4.70
2018-02-03T13:52:31.725Z,4.80
2018-02-03T13:54:35.107Z,4.80
2018-02-03T13:56:38.511Z,4.90
2018-02-03T13:58:42.641Z,4.80
2018-02-03T14:00:46.836Z,4.90
2018-02-03T14:02:50.168Z,4.90
2018-02-03T14:04:53.497Z,4.90
2018-02-03T14:06:57.307Z,4.90
2018-02-03T14:09:00.642Z,4.80
2018-02-03T14:11:05.038Z,4.80
2018-02-03T14:13:08.940Z,4.90
2018-02-03T14:15:13.209Z,4.80
2018-02-03T14:17:19.096Z,4.70
2018-02-03T14:19:22.499Z,4.70
2018-02-03T14:21:26.008Z,4.60
2018-02-03T14:23:29.439Z,4.60
2018-02-03T14:25:32.833Z,4.50
2018-02-03T14:27:36.538Z,4.40
2018-02-03T14:29:42.810Z,4.30
2018-02-03T14:31:49.999Z,4.40
2018-02-03T14:33:54.826Z,4.40
2018-02-03T14:35:58.592Z,4.40
2018-02-03T14:38:02.860Z,4.30
2018-02-03T14:40:10.755Z,4.20
2018-02-03T14:42:15.002Z,4.20
2018-02-03T14:44:18.462Z,4.20
2018-02-03T14:46:21.822Z,4.10
2018-02-03T14:48:26.016Z,4.10
2018-02-03T14:50:31.374Z,4.20
2018-02-03T14:52:34.891Z,4.20
2018-02-03T14:54:38.381Z,4.30
2018-02-03T14:56:41.761Z,4.30
2018-02-03T14:58:45.124Z,4.40
2018-02-03T15:00:48.520Z,4.40
2018-02-03T15:02:51.942Z,4.30
2018-02-03T15:04:55.353Z,4.40
2018-02-03T15:06:58.764Z,4.50
2018-02-03T15:09:02.964Z,4.40
2018-02-03T15:11:06.334Z,4.40
2018-02-03T15:13:09.796Z,4.40
2018-02-03T15:15:13.194Z,4.30
2018-02-03T15:17:16.588Z,4.30
2018-02-03T15:19:19.981Z,4.30
2018-02-03T15:21:23.446Z,4.30
2018-02-03T15:23:26.961Z,4.20
2018-02-03T15:25:30.314Z,4.20
2018-02-03T15:27:33.685Z,4.20
2018-02-03T15:29:37.882Z,4.20
2018-02-03T15:31:42.060Z,4.20
2018-02-03T15:33:45.474Z,4.20
2018-02-03T15:35:48.817Z,4.10
2018-02-03T15:37:52.927Z,4.00
2018-02-03T15:39:56.356Z,4.00
2018-02-03T15:41:59.708Z,4.00
2018-02-03T15:44:03.194Z,4.00
2018-02-03T15:46:07.378Z,4.00
2018-02-03T15:48:11.506Z,4.00
2018-02-03T15:50:15.685Z,4.00
2018-02-03T15:52:19.024Z,4.00
2018-02-03T15:54:22.430Z,3.90
2018-02-03T15:56:26.672Z,3.90
2018-02-03T15:58:30.060Z,3.80
2018-02-03T16:00:33.592Z,3.80
2018-02-03T16:02:38.466Z,3.80
2018-02-03T16:04:42.183Z,3.80
2018-02-03T16:06:45.558Z,3.80
2018-02-03T16:08:48.962Z,3.70
2018-02-03T16:10:52.938Z,3.70
2018-02-03T16:12:56.291Z,3.70
2018-02-03T16:14:59.689Z,3.60
2018-02-03T16:17:03.255Z,3.60
2018-02-03T16:19:06.685Z,3.60
2018-02-03T16:21:11.462Z,3.50
2018-02-03T16:23:17.363Z,3.50
2018-02-03T16:25:22.363Z,3.50
2018-02-03T16:27:25.742Z,3.50
2018-02-03T16:29:29.185Z,3.50
2018-02-03T16:31:33.334Z,3.50
2018-02-03T16:33:36.690Z,3.50
2018-02-03T16:35:40.812Z,3.50
2018-02-03T16:37:44.420Z,3.50
2018-02-03T16:39:47.759Z,3.50
2018-02-03T16:41:51.130Z,3.50
2018-02-03T16:43:55.079Z,3.50
2018-02-03T16:45:59.380Z,3.50
2018-02-03T16:48:02.750Z,3.50
2018-02-03T16:50:06.129Z,3.40
2018-02-03T16:52:09.583Z,3.40
2018-02-03T16:54:14.415Z,3.40
2018-02-03T16:56:29.534Z,3.30
2018-02-03T16:58:32.917Z,3.30
2018-02-03T17:00:36.466Z,3.30
2018-02-03T17:02:41.086Z,3.30
2018-02-03T17:04:45.179Z,3.30
2018-02-03T17:09:02.525Z,3.30
2018-02-03T17:11:06.804Z,3.30
2018-02-03T17:13:10.379Z,3.30
2018-02-03T17:15:14.222Z,3.30
2018-02-03T17:17:18.371Z,3.30
2018-02-03T17:19:21.907Z,3.20
2018-02-03T17:21:25.912Z,3.30
2018-02-03T17:23:29.309Z,3.30
2018-02-03T17:25:32.759Z,3.20
2018-02-03T17:27:36.082Z,3.20
2018-02-03T17:29:40.988Z,3.20
2018-02-03T17:31:46.070Z,3.20
2018-02-03T17:33:50.062Z,3.20
2018-02-03T17:35:53.719Z,3.20
2018-02-03T17:38:03.113Z,3.10
2018-02-03T17:40:06.957Z,3.20
2018-02-03T17:42:10.301Z,3.20
2018-02-03T17:44:14.248Z,3.10
2018-02-03T17:46:23.273Z,3.20
2018-02-03T17:48:28.175Z,3.10
2018-02-03T17:50:31.720Z,3.10
2018-02-03T17:52:35.105Z,3.10
2018-02-03T17:54:38.535Z,3.10
2018-02-03T17:56:47.642Z,3.10
2018-02-03T17:58:52.430Z,3.00
2018-02-03T18:00:56.061Z,3.00
2018-02-03T18:02:59.432Z,3.00
2018-02-03T18:05:04.494Z,3.00
2018-02-03T18:07:07.848Z,3.00
2018-02-03T18:09:11.198Z,3.00
2018-02-03T18:11:14.570Z,3.10
2018-02-03T18:13:18.678Z,3.10
2018-02-03T18:15:22.069Z,3.00
2018-02-03T18:17:25.522Z,3.10
2018-02-03T18:19:29.801Z,3.10
2018-02-03T18:21:34.175Z,3.00
2018-02-03T18:23:37.593Z,3.00
2018-02-03T18:25:43.046Z,3.10
2018-02-03T18:27:47.225Z,3.20
2018-02-03T18:29:52.282Z,3.20
2018-02-03T18:31:59.853Z,3.20
2018-02-03T18:34:04.798Z,3.10
2018-02-03T18:36:08.974Z,3.10
2018-02-03T18:38:12.487Z,3.10
2018-02-03T18:40:16.003Z,3.10
2018-02-03T18:42:20.162Z,3.00
2018-02-03T18:44:23.666Z,3.00
2018-02-03T18:46:27.732Z,3.00
2018-02-03T18:48:31.703Z,3.00
2018-02-03T18:50:35.878Z,2.90
2018-02-03T18:52:39.403Z,2.90
2018-02-03T18:54:44.550Z,2.90
2018-02-03T18:56:51.956Z,2.90
2018-02-03T18:58:56.111Z,2.80
2018-02-03T19:00:59.550Z,2.80
2018-02-03T19:03:04.898Z,2.90
2018-02-03T19:05:08.292Z,2.90
2018-02-03T19:07:12.848Z,2.90
2018-02-03T19:09:16.287Z,2.90
2018-02-03T19:11:19.674Z,2.90
2018-02-03T19:13:22.996Z,2.90
2018-02-03T19:15:26.534Z,2.90
2018-02-03T19:17:30.515Z,2.90
2018-02-03T19:19:34.154Z,2.90
2018-02-03T19:21:38.729Z,2.80
2018-02-03T19:23:42.104Z,2.90
2018-02-03T19:25:46.727Z,2.90
2018-02-03T19:27:53.262Z,2.90
2018-02-03T19:29:57.248Z,2.90
2018-02-03T19:32:00.719Z,2.90
2018-02-03T19:34:04.105Z,2.90
2018-02-03T19:36:07.479Z,2.90
2018-02-03T19:38:10.824Z,3.00
2018-02-03T19:40:14.177Z,3.00
2018-02-03T19:42:17.560Z,3.00
2018-02-03T19:44:21.021Z,3.00
2018-02-03T19:46:24.478Z,3.00
2018-02-03T19:48:27.851Z,3.00
2018-02-03T19:50:31.214Z,2.90
2018-02-03T19:52:34.666Z,2.90
2018-02-03T19:54:38.048Z,2.90
2018-02-03T19:56:41.419Z,2.80
2018-02-03T19:58:44.814Z,2.80
2018-02-03T20:00:48.180Z,2.70
2018-02-03T20:02:51.538Z,2.60
2018-02-03T20:04:54.917Z,2.50
2018-02-03T20:06:58.287Z,2.50
2018-02-03T20:09:01.680Z,2.40
2018-02-03T20:11:05.052Z,2.30
2018-02-03T20:13:09.194Z,2.30
2018-02-03T20:15:12.655Z,2.30
2018-02-03T20:17:16.027Z,2.40
2018-02-03T20:19:20.389Z,2.40
2018-02-03T20:21:23.762Z,2.40
2018-02-03T20:23:27.852Z,2.40
2018-02-03T20:25:31.246Z,2.40
2018-02-03T20:27:34.590Z,2.40
2018-02-03T20:29:37.913Z,2.40
2018-02-03T20:31:41.256Z,2.40
2018-02-03T20:33:44.647Z,2.40
2018-02-03T20:35:48.049Z,2.40
2018-02-03T20:37:52.264Z,2.40
2018-02-03T20:39:55.595Z,2.40
2018-02-03T20:41:59.270Z,2.40
2018-02-03T20:44:02.638Z,2.40
2018-02-03T20:46:06.760Z,2.40
2018-02-03T20:48:10.109Z,2.40
2018-02-03T20:50:14.242Z,2.40
2018-02-03T20:52:17.582Z,2.40
2018-02-03T20:54:20.965Z,2.40
2018-02-03T20:56:24.356Z,2.40
2018-02-03T20:58:27.749Z,2.40
2018-02-03T21:00:31.230Z,2.40
2018-02-03T21:02:34.895Z,2.30
2018-02-03T21:04:38.242Z,2.30
2018-02-03T21:06:41.580Z,2.40
2018-02-03T21:08:44.915Z,2.30
2018-02-03T21:10:48.293Z,2.40
2018-02-03T21:12:54.686Z,2.40
2018-02-03T21:14:58.015Z,2.40
2018-02-03T21:17:01.357Z,2.40
2018-02-03T21:19:04.696Z,2.40
2018-02-03T21:21:08.077Z,2.40
2018-02-03T21:23:12.187Z,2.40
2018-02-03T21:25:15.668Z,2.40
2018-02-03T21:27:19.058Z,2.40
2018-02-03T21:29:22.393Z,2.40
2018-02-03T21:31:25.731Z,2.50
2018-02-03T21:33:29.897Z,2.50
2018-02-03T21:35:33.440Z,2.50
2018-02-03T21:37:36.876Z,2.40
2018-02-03T21:39:40.233Z,2.40
2018-02-03T21:41:43.602Z,2.30
2018-02-03T21:43:46.943Z,2.30
2018-02-03T21:45:51.205Z,2.20
2018-02-03T21:47:54.704Z,2.10
2018-02-03T21:49:59.028Z,2.00
2018-02-03T21:52:02.377Z,2.00
2018-02-03T21:54:05.798Z,2.00
2018-02-03T21:56:09.162Z,2.00
2018-02-03T21:58:13.091Z,2.00
2018-02-03T22:00:16.491Z,2.10
2018-02-03T22:02:19.831Z,2.00
2018-02-03T22:04:23.230Z,2.00
2018-02-03T22:06:26.597Z,1.90
2018-02-03T22:08:29.990Z,1.90
2018-02-03T22:10:33.381Z,1.90
2018-02-03T22:12:36.851Z,1.90
2018-02-03T22:14:41.039Z,1.90
2018-02-03T22:16:44.397Z,2.00
2018-02-03T22:18:47.981Z,1.90
2018-02-03T22:20:52.066Z,2.00
2018-02-03T22:22:56.179Z,1.90
2018-02-03T22:25:00.317Z,1.90
2018-02-03T22:27:03.708Z,1.90
2018-02-03T22:29:07.052Z,1.80
2018-02-03T22:31:10.386Z,1.80
2018-02-03T22:33:13.722Z,1.80
2018-02-03T22:35:17.061Z,1.80
2018-02-03T22:37:21.162Z,1.70
2018-02-03T22:39:24.522Z,1.70
2018-02-03T22:41:27.940Z,1.70
2018-02-03T22:43:31.291Z,1.70
2018-02-03T22:45:34.650Z,1.60
2018-02-03T22:47:37.998Z,1.60
2018-02-03T22:49:41.370Z,1.60
2018-02-03T22:51:44.710Z,1.60
2018-02-03T22:53:48.833Z,1.60
2018-02-03T22:55:52.932Z,1.60
2018-02-03T22:57:56.282Z,1.60
2018-02-03T22:59:59.658Z,1.60
2018-02-03T23:02:04.952Z,1.60
2018-02-03T23:04:08.322Z,1.60
2018-02-03T23:06:11.687Z,1.50
2018-02-03T23:08:15.027Z,1.50
2018-02-03T23:10:18.397Z,1.50
2018-02-03T23:12:22.526Z,1.50
2018-02-03T23:14:26.635Z,1.40
2018-02-03T23:16:30.010Z,1.40
2018-02-03T23:18:33.353Z,1.40
2018-02-03T23:20:36.712Z,1.40
2018-02-03T23:22:40.076Z,1.30
2018-02-03T23:24:44.187Z,1.30
2018-02-03T23:26:47.514Z,1.20
2018-02-03T23:28:50.846Z,1.20
2018-02-03T23:30:57.040Z,1.20
2018-02-03T23:33:00.397Z,1.20
2018-02-03T23:35:03.844Z,1.10
2018-02-03T23:37:07.216Z,1.10
2018-02-03T23:39:10.657Z,1.10
2018-02-03T23:41:14.025Z,1.10
2018-02-03T23:43:17.417Z,1.10
2018-02-03T23:45:22.092Z,1.10
2018-02-03T23:47:26.629Z,1.10
2018-02-03T23:49:30.193Z,1.10
2018-02-03T23:51:33.850Z,1.10
2018-02-03T23:53:37.222Z,1.00
2018-02-03T23:55:41.529Z,1.10
2018-02-03T23:57:46.266Z,1.00
2018-02-03T23:59:57.608Z,1.00
